sensor_id;sensor_type;location;lat;lon;timestamp;P1;durP1;ratioP1;P2;durP2;ratioP2
10465;SDS011;5280;42.600;23.556;2022-11-20T00:01:25;3.67;;;2.97;;
10465;SDS011;5280;42.600;23.556;2022-11-20T00:03:53;3.50;;;3.20;;
10465;SDS011;5280;42.600;23.556;2022-11-20T00:06:21;5.23;;;3.27;;
10465;SDS011;5280;42.600;23.556;2022-11-20T00:08:49;4.17;;;3.27;;
10465;SDS011;5280;42.600;23.556;2022-11-20T00:11:17;6.37;;;2.93;;
10465;SDS011;5280;42.600;23.556;2022-11-20T00:13:45;4.17;;;2.40;;
10465;SDS011;5280;42.600;23.556;2022-11-20T00:16:16;4.13;;;2.70;;
10465;SDS011;5280;42.600;23.556;2022-11-20T00:18:44;3.77;;;2.43;;
10465;SDS011;5280;42.600;23.556;2022-11-20T00:21:12;2.70;;;2.17;;
10465;SDS011;5280;42.600;23.556;2022-11-20T00:23:40;3.17;;;2.10;;
10465;SDS011;5280;42.600;23.556;2022-11-20T00:26:09;2.57;;;1.70;;
10465;SDS011;5280;42.600;23.556;2022-11-20T00:28:39;4.53;;;2.03;;
10465;SDS011;5280;42.600;23.556;2022-11-20T00:31:07;3.57;;;1.93;;
10465;SDS011;5280;42.600;23.556;2022-11-20T00:33:36;2.83;;;2.10;;
10465;SDS011;5280;42.600;23.556;2022-11-20T00:36:04;2.10;;;1.90;;
10465;SDS011;5280;42.600;23.556;2022-11-20T00:38:33;1.77;;;1.67;;
10465;SDS011;5280;42.600;23.556;2022-11-20T00:41:00;2.80;;;1.70;;
10465;SDS011;5280;42.600;23.556;2022-11-20T00:43:29;1.60;;;1.50;;
10465;SDS011;5280;42.600;23.556;2022-11-20T00:45:56;4.07;;;2.50;;
10465;SDS011;5280;42.600;23.556;2022-11-20T00:48:23;4.33;;;1.60;;
10465;SDS011;5280;42.600;23.556;2022-11-20T00:50:51;2.00;;;1.50;;
10465;SDS011;5280;42.600;23.556;2022-11-20T00:53:18;2.20;;;1.40;;
10465;SDS011;5280;42.600;23.556;2022-11-20T00:55:52;1.47;;;1.37;;
10465;SDS011;5280;42.600;23.556;2022-11-20T00:58:19;1.93;;;1.50;;
10465;SDS011;5280;42.600;23.556;2022-11-20T01:00:46;4.73;;;1.40;;
10465;SDS011;5280;42.600;23.556;2022-11-20T01:03:14;4.23;;;1.50;;
10465;SDS011;5280;42.600;23.556;2022-11-20T01:05:41;1.33;;;1.23;;
10465;SDS011;5280;42.600;23.556;2022-11-20T01:08:09;5.13;;;1.73;;
10465;SDS011;5280;42.600;23.556;2022-11-20T01:10:36;4.60;;;2.37;;
10465;SDS011;5280;42.600;23.556;2022-11-20T01:13:03;3.93;;;2.70;;
10465;SDS011;5280;42.600;23.556;2022-11-20T01:15:47;3.87;;;2.30;;
10465;SDS011;5280;42.600;23.556;2022-11-20T01:18:14;4.57;;;2.67;;
10465;SDS011;5280;42.600;23.556;2022-11-20T01:20:41;3.37;;;2.20;;
10465;SDS011;5280;42.600;23.556;2022-11-20T01:23:07;3.43;;;2.83;;
10465;SDS011;5280;42.600;23.556;2022-11-20T01:25:36;3.60;;;1.60;;
10465;SDS011;5280;42.600;23.556;2022-11-20T01:28:02;4.80;;;1.87;;
10465;SDS011;5280;42.600;23.556;2022-11-20T01:30:29;3.80;;;1.57;;
10465;SDS011;5280;42.600;23.556;2022-11-20T01:32:56;2.30;;;1.40;;
10465;SDS011;5280;42.600;23.556;2022-11-20T01:35:22;2.50;;;1.20;;
10465;SDS011;5280;42.600;23.556;2022-11-20T01:37:49;3.37;;;1.37;;
10465;SDS011;5280;42.600;23.556;2022-11-20T01:40:17;3.03;;;1.47;;
10465;SDS011;5280;42.600;23.556;2022-11-20T01:42:46;1.80;;;1.20;;
10465;SDS011;5280;42.600;23.556;2022-11-20T01:45:56;3.33;;;1.30;;
10465;SDS011;5280;42.600;23.556;2022-11-20T01:48:25;1.57;;;0.97;;
10465;SDS011;5280;42.600;23.556;2022-11-20T01:50:56;1.17;;;1.07;;
10465;SDS011;5280;42.600;23.556;2022-11-20T01:53:25;2.47;;;1.10;;
10465;SDS011;5280;42.600;23.556;2022-11-20T01:55:56;2.03;;;1.60;;
10465;SDS011;5280;42.600;23.556;2022-11-20T01:58:27;2.20;;;0.97;;
10465;SDS011;5280;42.600;23.556;2022-11-20T02:00:59;1.73;;;1.10;;
10465;SDS011;5280;42.600;23.556;2022-11-20T02:03:26;1.83;;;1.10;;
10465;SDS011;5280;42.600;23.556;2022-11-20T02:05:55;2.70;;;0.97;;
10465;SDS011;5280;42.600;23.556;2022-11-20T02:08:27;2.90;;;1.27;;
10465;SDS011;5280;42.600;23.556;2022-11-20T02:10:55;0.90;;;0.90;;
10465;SDS011;5280;42.600;23.556;2022-11-20T02:13:21;0.60;;;0.60;;
10465;SDS011;5280;42.600;23.556;2022-11-20T02:16:09;0.90;;;0.90;;
10465;SDS011;5280;42.600;23.556;2022-11-20T02:18:39;2.10;;;0.80;;
10465;SDS011;5280;42.600;23.556;2022-11-20T02:21:08;3.03;;;0.80;;
10465;SDS011;5280;42.600;23.556;2022-11-20T02:26:19;1.17;;;0.70;;
10465;SDS011;5280;42.600;23.556;2022-11-20T02:28:49;3.03;;;1.00;;
10465;SDS011;5280;42.600;23.556;2022-11-20T02:31:17;3.00;;;0.70;;
10465;SDS011;5280;42.600;23.556;2022-11-20T02:33:44;2.77;;;1.07;;
10465;SDS011;5280;42.600;23.556;2022-11-20T02:36:11;5.30;;;1.00;;
10465;SDS011;5280;42.600;23.556;2022-11-20T02:38:42;3.70;;;0.83;;
10465;SDS011;5280;42.600;23.556;2022-11-20T02:41:11;1.43;;;0.83;;
10465;SDS011;5280;42.600;23.556;2022-11-20T02:43:38;3.30;;;1.40;;
10465;SDS011;5280;42.600;23.556;2022-11-20T02:46:06;2.87;;;0.90;;
10465;SDS011;5280;42.600;23.556;2022-11-20T02:48:33;0.87;;;0.80;;
10465;SDS011;5280;42.600;23.556;2022-11-20T02:51:00;2.10;;;0.77;;
10465;SDS011;5280;42.600;23.556;2022-11-20T02:53:27;2.73;;;1.00;;
10465;SDS011;5280;42.600;23.556;2022-11-20T02:55:54;4.60;;;1.20;;
10465;SDS011;5280;42.600;23.556;2022-11-20T02:58:23;1.37;;;0.70;;
10465;SDS011;5280;42.600;23.556;2022-11-20T03:00:49;1.53;;;0.80;;
10465;SDS011;5280;42.600;23.556;2022-11-20T03:03:16;2.63;;;1.20;;
10465;SDS011;5280;42.600;23.556;2022-11-20T03:05:43;1.47;;;1.17;;
10465;SDS011;5280;42.600;23.556;2022-11-20T03:08:10;1.67;;;0.90;;
10465;SDS011;5280;42.600;23.556;2022-11-20T03:10:37;4.27;;;2.73;;
10465;SDS011;5280;42.600;23.556;2022-11-20T03:13:03;2.93;;;1.10;;
10465;SDS011;5280;42.600;23.556;2022-11-20T03:15:31;2.23;;;0.87;;
10465;SDS011;5280;42.600;23.556;2022-11-20T03:17:59;1.67;;;1.00;;
10465;SDS011;5280;42.600;23.556;2022-11-20T03:20:25;1.87;;;0.90;;
10465;SDS011;5280;42.600;23.556;2022-11-20T03:22:53;2.03;;;0.67;;
10465;SDS011;5280;42.600;23.556;2022-11-20T03:25:20;1.63;;;0.90;;
10465;SDS011;5280;42.600;23.556;2022-11-20T03:27:47;0.87;;;0.77;;
10465;SDS011;5280;42.600;23.556;2022-11-20T03:30:13;1.77;;;0.80;;
10465;SDS011;5280;42.600;23.556;2022-11-20T03:32:42;1.03;;;0.93;;
10465;SDS011;5280;42.600;23.556;2022-11-20T03:35:09;2.53;;;1.03;;
10465;SDS011;5280;42.600;23.556;2022-11-20T03:37:36;2.40;;;0.80;;
10465;SDS011;5280;42.600;23.556;2022-11-20T03:40:03;1.23;;;0.73;;
10465;SDS011;5280;42.600;23.556;2022-11-20T03:42:30;1.33;;;0.73;;
10465;SDS011;5280;42.600;23.556;2022-11-20T03:45:12;0.87;;;0.60;;
10465;SDS011;5280;42.600;23.556;2022-11-20T03:47:39;2.40;;;1.00;;
10465;SDS011;5280;42.600;23.556;2022-11-20T03:50:08;1.97;;;0.80;;
10465;SDS011;5280;42.600;23.556;2022-11-20T03:52:37;3.30;;;0.70;;
10465;SDS011;5280;42.600;23.556;2022-11-20T03:55:04;1.93;;;0.80;;
10465;SDS011;5280;42.600;23.556;2022-11-20T03:57:32;1.30;;;1.20;;
10465;SDS011;5280;42.600;23.556;2022-11-20T03:59:59;1.33;;;0.70;;
10465;SDS011;5280;42.600;23.556;2022-11-20T04:02:26;2.57;;;1.20;;
10465;SDS011;5280;42.600;23.556;2022-11-20T04:04:52;0.97;;;0.50;;
10465;SDS011;5280;42.600;23.556;2022-11-20T04:07:21;2.73;;;0.70;;
10465;SDS011;5280;42.600;23.556;2022-11-20T04:09:47;1.40;;;0.77;;
10465;SDS011;5280;42.600;23.556;2022-11-20T04:12:14;0.80;;;0.73;;
10465;SDS011;5280;42.600;23.556;2022-11-20T04:14:41;1.07;;;0.63;;
10465;SDS011;5280;42.600;23.556;2022-11-20T04:17:08;2.00;;;0.60;;
10465;SDS011;5280;42.600;23.556;2022-11-20T04:19:34;4.27;;;1.00;;
10465;SDS011;5280;42.600;23.556;2022-11-20T04:22:01;1.70;;;0.70;;
10465;SDS011;5280;42.600;23.556;2022-11-20T04:24:29;2.10;;;0.70;;
10465;SDS011;5280;42.600;23.556;2022-11-20T04:26:56;2.63;;;0.63;;
10465;SDS011;5280;42.600;23.556;2022-11-20T04:29:23;0.83;;;0.60;;
10465;SDS011;5280;42.600;23.556;2022-11-20T04:31:50;1.07;;;0.80;;
10465;SDS011;5280;42.600;23.556;2022-11-20T04:34:16;1.43;;;0.77;;
10465;SDS011;5280;42.600;23.556;2022-11-20T04:36:43;2.40;;;1.00;;
10465;SDS011;5280;42.600;23.556;2022-11-20T04:39:13;5.57;;;0.90;;
10465;SDS011;5280;42.600;23.556;2022-11-20T04:41:46;3.83;;;0.83;;
10465;SDS011;5280;42.600;23.556;2022-11-20T04:44:12;0.93;;;0.60;;
10465;SDS011;5280;42.600;23.556;2022-11-20T04:46:40;2.30;;;0.60;;
10465;SDS011;5280;42.600;23.556;2022-11-20T04:49:08;1.43;;;0.80;;
10465;SDS011;5280;42.600;23.556;2022-11-20T04:51:35;2.23;;;0.67;;
10465;SDS011;5280;42.600;23.556;2022-11-20T04:54:02;1.23;;;0.60;;
10465;SDS011;5280;42.600;23.556;2022-11-20T04:56:29;2.90;;;0.70;;
10465;SDS011;5280;42.600;23.556;2022-11-20T04:58:59;2.33;;;0.70;;
10465;SDS011;5280;42.600;23.556;2022-11-20T05:01:26;3.00;;;0.60;;
10465;SDS011;5280;42.600;23.556;2022-11-20T05:03:53;1.13;;;0.67;;
10465;SDS011;5280;42.600;23.556;2022-11-20T05:06:22;3.37;;;0.90;;
10465;SDS011;5280;42.600;23.556;2022-11-20T05:08:49;3.57;;;1.10;;
10465;SDS011;5280;42.600;23.556;2022-11-20T05:11:16;1.30;;;0.67;;
10465;SDS011;5280;42.600;23.556;2022-11-20T05:13:45;2.27;;;0.70;;
10465;SDS011;5280;42.600;23.556;2022-11-20T05:16:14;1.60;;;0.80;;
10465;SDS011;5280;42.600;23.556;2022-11-20T05:18:42;0.87;;;0.70;;
10465;SDS011;5280;42.600;23.556;2022-11-20T05:21:09;0.70;;;0.53;;
10465;SDS011;5280;42.600;23.556;2022-11-20T05:23:37;0.87;;;0.60;;
10465;SDS011;5280;42.600;23.556;2022-11-20T05:26:05;0.93;;;0.87;;
10465;SDS011;5280;42.600;23.556;2022-11-20T05:28:33;1.93;;;0.80;;
10465;SDS011;5280;42.600;23.556;2022-11-20T05:31:04;2.53;;;0.80;;
10465;SDS011;5280;42.600;23.556;2022-11-20T05:33:36;1.80;;;0.83;;
10465;SDS011;5280;42.600;23.556;2022-11-20T05:36:03;3.03;;;0.93;;
10465;SDS011;5280;42.600;23.556;2022-11-20T05:38:30;2.03;;;0.83;;
10465;SDS011;5280;42.600;23.556;2022-11-20T05:41:02;1.03;;;0.93;;
10465;SDS011;5280;42.600;23.556;2022-11-20T05:43:31;2.63;;;0.90;;
10465;SDS011;5280;42.600;23.556;2022-11-20T05:45:59;1.97;;;1.00;;
10465;SDS011;5280;42.600;23.556;2022-11-20T05:48:26;1.60;;;0.80;;
10465;SDS011;5280;42.600;23.556;2022-11-20T05:50:55;2.47;;;1.00;;
10465;SDS011;5280;42.600;23.556;2022-11-20T05:53:22;1.33;;;0.70;;
10465;SDS011;5280;42.600;23.556;2022-11-20T05:55:55;2.40;;;0.90;;
10465;SDS011;5280;42.600;23.556;2022-11-20T05:58:23;3.90;;;0.80;;
10465;SDS011;5280;42.600;23.556;2022-11-20T06:00:50;1.80;;;1.10;;
10465;SDS011;5280;42.600;23.556;2022-11-20T06:03:17;1.40;;;0.77;;
10465;SDS011;5280;42.600;23.556;2022-11-20T06:05:43;2.40;;;0.80;;
10465;SDS011;5280;42.600;23.556;2022-11-20T06:08:14;2.30;;;0.90;;
10465;SDS011;5280;42.600;23.556;2022-11-20T06:10:41;2.37;;;0.97;;
10465;SDS011;5280;42.600;23.556;2022-11-20T06:13:08;1.73;;;0.80;;
10465;SDS011;5280;42.600;23.556;2022-11-20T06:15:35;2.33;;;0.80;;
10465;SDS011;5280;42.600;23.556;2022-11-20T06:18:02;2.40;;;1.00;;
10465;SDS011;5280;42.600;23.556;2022-11-20T06:20:28;3.10;;;1.00;;
10465;SDS011;5280;42.600;23.556;2022-11-20T06:22:55;3.17;;;1.20;;
10465;SDS011;5280;42.600;23.556;2022-11-20T06:25:23;2.77;;;0.93;;
10465;SDS011;5280;42.600;23.556;2022-11-20T06:27:50;1.43;;;0.67;;
10465;SDS011;5280;42.600;23.556;2022-11-20T06:30:18;1.33;;;0.80;;
10465;SDS011;5280;42.600;23.556;2022-11-20T06:32:45;2.90;;;0.70;;
10465;SDS011;5280;42.600;23.556;2022-11-20T06:35:11;2.63;;;0.90;;
10465;SDS011;5280;42.600;23.556;2022-11-20T06:37:38;1.63;;;0.80;;
10465;SDS011;5280;42.600;23.556;2022-11-20T06:40:05;3.00;;;1.33;;
10465;SDS011;5280;42.600;23.556;2022-11-20T06:42:34;1.00;;;0.70;;
10465;SDS011;5280;42.600;23.556;2022-11-20T06:45:01;4.10;;;0.87;;
10465;SDS011;5280;42.600;23.556;2022-11-20T06:47:28;2.70;;;0.73;;
10465;SDS011;5280;42.600;23.556;2022-11-20T06:49:56;1.93;;;0.80;;
10465;SDS011;5280;42.600;23.556;2022-11-20T06:52:22;4.30;;;1.20;;
10465;SDS011;5280;42.600;23.556;2022-11-20T06:54:49;2.00;;;0.70;;
10465;SDS011;5280;42.600;23.556;2022-11-20T06:57:16;2.93;;;0.90;;
10465;SDS011;5280;42.600;23.556;2022-11-20T06:59:44;0.93;;;0.90;;
10465;SDS011;5280;42.600;23.556;2022-11-20T07:02:11;1.83;;;1.10;;
10465;SDS011;5280;42.600;23.556;2022-11-20T07:04:38;2.30;;;0.87;;
10465;SDS011;5280;42.600;23.556;2022-11-20T07:07:05;2.37;;;1.03;;
10465;SDS011;5280;42.600;23.556;2022-11-20T07:09:32;2.67;;;0.90;;
10465;SDS011;5280;42.600;23.556;2022-11-20T07:11:59;2.27;;;0.83;;
10465;SDS011;5280;42.600;23.556;2022-11-20T07:14:26;2.03;;;0.60;;
10465;SDS011;5280;42.600;23.556;2022-11-20T07:16:54;5.10;;;0.90;;
10465;SDS011;5280;42.600;23.556;2022-11-20T07:19:21;2.23;;;0.80;;
10465;SDS011;5280;42.600;23.556;2022-11-20T07:21:48;1.03;;;0.77;;
10465;SDS011;5280;42.600;23.556;2022-11-20T07:24:14;1.93;;;0.90;;
10465;SDS011;5280;42.600;23.556;2022-11-20T07:26:41;2.03;;;0.87;;
10465;SDS011;5280;42.600;23.556;2022-11-20T07:29:08;1.50;;;0.70;;
10465;SDS011;5280;42.600;23.556;2022-11-20T07:31:35;1.53;;;0.70;;
10465;SDS011;5280;42.600;23.556;2022-11-20T07:34:03;2.50;;;0.50;;
10465;SDS011;5280;42.600;23.556;2022-11-20T07:36:30;2.70;;;0.80;;
10465;SDS011;5280;42.600;23.556;2022-11-20T07:38:56;3.60;;;0.70;;
10465;SDS011;5280;42.600;23.556;2022-11-20T07:41:23;2.20;;;0.80;;
10465;SDS011;5280;42.600;23.556;2022-11-20T07:43:50;4.13;;;0.90;;
10465;SDS011;5280;42.600;23.556;2022-11-20T07:46:20;1.10;;;0.50;;
10465;SDS011;5280;42.600;23.556;2022-11-20T07:48:46;1.53;;;0.80;;
10465;SDS011;5280;42.600;23.556;2022-11-20T07:51:15;0.93;;;0.67;;
10465;SDS011;5280;42.600;23.556;2022-11-20T07:53:41;1.23;;;0.93;;
10465;SDS011;5280;42.600;23.556;2022-11-20T07:56:08;2.23;;;0.77;;
10465;SDS011;5280;42.600;23.556;2022-11-20T07:58:35;2.60;;;1.23;;
10465;SDS011;5280;42.600;23.556;2022-11-20T08:01:02;0.77;;;0.73;;
10465;SDS011;5280;42.600;23.556;2022-11-20T08:03:30;1.53;;;1.00;;
10465;SDS011;5280;42.600;23.556;2022-11-20T08:05:58;3.70;;;0.87;;
10465;SDS011;5280;42.600;23.556;2022-11-20T08:08:26;4.53;;;3.17;;
10465;SDS011;5280;42.600;23.556;2022-11-20T08:10:53;1.40;;;0.70;;
10465;SDS011;5280;42.600;23.556;2022-11-20T08:13:41;1.53;;;0.87;;
10465;SDS011;5280;42.600;23.556;2022-11-20T08:16:25;3.50;;;1.30;;
10465;SDS011;5280;42.600;23.556;2022-11-20T08:18:52;1.07;;;0.90;;
10465;SDS011;5280;42.600;23.556;2022-11-20T08:21:18;3.70;;;0.87;;
10465;SDS011;5280;42.600;23.556;2022-11-20T08:23:47;1.40;;;0.70;;
10465;SDS011;5280;42.600;23.556;2022-11-20T08:26:13;1.60;;;0.97;;
10465;SDS011;5280;42.600;23.556;2022-11-20T08:28:40;2.57;;;0.90;;
10465;SDS011;5280;42.600;23.556;2022-11-20T08:31:07;1.03;;;0.90;;
10465;SDS011;5280;42.600;23.556;2022-11-20T08:33:34;3.53;;;1.30;;
10465;SDS011;5280;42.600;23.556;2022-11-20T08:36:01;0.90;;;0.90;;
10465;SDS011;5280;42.600;23.556;2022-11-20T08:38:30;1.23;;;1.10;;
10465;SDS011;5280;42.600;23.556;2022-11-20T08:40:58;1.83;;;0.90;;
10465;SDS011;5280;42.600;23.556;2022-11-20T08:43:43;1.83;;;0.97;;
10465;SDS011;5280;42.600;23.556;2022-11-20T08:46:10;1.23;;;0.90;;
10465;SDS011;5280;42.600;23.556;2022-11-20T08:48:37;2.50;;;1.00;;
10465;SDS011;5280;42.600;23.556;2022-11-20T08:51:04;3.80;;;1.40;;
10465;SDS011;5280;42.600;23.556;2022-11-20T08:53:31;2.70;;;1.10;;
10465;SDS011;5280;42.600;23.556;2022-11-20T08:55:59;1.57;;;0.90;;
10465;SDS011;5280;42.600;23.556;2022-11-20T08:58:26;1.00;;;0.93;;
10465;SDS011;5280;42.600;23.556;2022-11-20T09:00:53;2.27;;;1.20;;
10465;SDS011;5280;42.600;23.556;2022-11-20T09:03:20;2.43;;;1.10;;
10465;SDS011;5280;42.600;23.556;2022-11-20T09:05:47;2.63;;;1.30;;
10465;SDS011;5280;42.600;23.556;2022-11-20T09:08:14;2.13;;;1.00;;
10465;SDS011;5280;42.600;23.556;2022-11-20T09:10:40;2.40;;;1.00;;
10465;SDS011;5280;42.600;23.556;2022-11-20T09:13:09;2.40;;;1.10;;
10465;SDS011;5280;42.600;23.556;2022-11-20T09:15:35;2.00;;;1.10;;
10465;SDS011;5280;42.600;23.556;2022-11-20T09:18:02;3.50;;;0.80;;
10465;SDS011;5280;42.600;23.556;2022-11-20T09:20:30;1.13;;;1.07;;
10465;SDS011;5280;42.600;23.556;2022-11-20T09:22:57;1.07;;;0.97;;
10465;SDS011;5280;42.600;23.556;2022-11-20T09:25:24;3.97;;;1.20;;
10465;SDS011;5280;42.600;23.556;2022-11-20T09:27:54;1.20;;;1.10;;
10465;SDS011;5280;42.600;23.556;2022-11-20T09:30:23;1.70;;;0.97;;
10465;SDS011;5280;42.600;23.556;2022-11-20T09:32:50;2.07;;;1.10;;
10465;SDS011;5280;42.600;23.556;2022-11-20T09:35:17;4.43;;;1.40;;
10465;SDS011;5280;42.600;23.556;2022-11-20T09:37:46;2.23;;;1.00;;
10465;SDS011;5280;42.600;23.556;2022-11-20T09:40:17;2.90;;;1.23;;
10465;SDS011;5280;42.600;23.556;2022-11-20T09:42:47;2.50;;;1.50;;
10465;SDS011;5280;42.600;23.556;2022-11-20T09:45:28;4.07;;;1.33;;
10465;SDS011;5280;42.600;23.556;2022-11-20T09:48:08;1.87;;;1.40;;
10465;SDS011;5280;42.600;23.556;2022-11-20T09:50:49;2.43;;;1.30;;
10465;SDS011;5280;42.600;23.556;2022-11-20T09:53:24;5.23;;;1.60;;
10465;SDS011;5280;42.600;23.556;2022-11-20T09:55:57;2.70;;;1.63;;
10465;SDS011;5280;42.600;23.556;2022-11-20T09:58:28;8.03;;;3.50;;
10465;SDS011;5280;42.600;23.556;2022-11-20T10:01:00;4.80;;;2.60;;
10465;SDS011;5280;42.600;23.556;2022-11-20T10:03:39;2.53;;;1.80;;
10465;SDS011;5280;42.600;23.556;2022-11-20T10:06:15;3.23;;;1.97;;
10465;SDS011;5280;42.600;23.556;2022-11-20T10:08:45;6.30;;;2.60;;
10465;SDS011;5280;42.600;23.556;2022-11-20T10:11:26;3.53;;;2.50;;
10465;SDS011;5280;42.600;23.556;2022-11-20T10:14:03;3.60;;;2.30;;
10465;SDS011;5280;42.600;23.556;2022-11-20T10:16:41;4.23;;;2.53;;
10465;SDS011;5280;42.600;23.556;2022-11-20T10:22:13;5.20;;;2.67;;
10465;SDS011;5280;42.600;23.556;2022-11-20T10:24:55;3.67;;;2.30;;
10465;SDS011;5280;42.600;23.556;2022-11-20T10:27:32;4.30;;;2.20;;
10465;SDS011;5280;42.600;23.556;2022-11-20T10:30:14;5.37;;;2.60;;
10465;SDS011;5280;42.600;23.556;2022-11-20T10:32:45;5.03;;;2.43;;
10465;SDS011;5280;42.600;23.556;2022-11-20T10:35:16;4.33;;;1.83;;
10465;SDS011;5280;42.600;23.556;2022-11-20T10:37:49;4.20;;;2.30;;
10465;SDS011;5280;42.600;23.556;2022-11-20T10:40:25;5.37;;;2.70;;
10465;SDS011;5280;42.600;23.556;2022-11-20T10:42:58;4.80;;;2.93;;
10465;SDS011;5280;42.600;23.556;2022-11-20T10:45:32;2.43;;;1.40;;
10465;SDS011;5280;42.600;23.556;2022-11-20T10:48:12;3.47;;;2.10;;
10465;SDS011;5280;42.600;23.556;2022-11-20T10:50:46;2.90;;;1.73;;
10465;SDS011;5280;42.600;23.556;2022-11-20T10:53:25;3.10;;;2.33;;
10465;SDS011;5280;42.600;23.556;2022-11-20T10:56:04;4.13;;;1.93;;
10465;SDS011;5280;42.600;23.556;2022-11-20T10:58:36;3.23;;;2.20;;
10465;SDS011;5280;42.600;23.556;2022-11-20T11:01:14;4.17;;;2.33;;
10465;SDS011;5280;42.600;23.556;2022-11-20T11:03:43;3.47;;;1.70;;
10465;SDS011;5280;42.600;23.556;2022-11-20T11:06:12;7.27;;;3.40;;
10465;SDS011;5280;42.600;23.556;2022-11-20T11:08:47;4.57;;;2.37;;
10465;SDS011;5280;42.600;23.556;2022-11-20T11:11:20;3.30;;;1.77;;
10465;SDS011;5280;42.600;23.556;2022-11-20T11:13:49;3.27;;;1.80;;
10465;SDS011;5280;42.600;23.556;2022-11-20T11:16:19;8.47;;;3.27;;
10465;SDS011;5280;42.600;23.556;2022-11-20T11:18:49;6.13;;;3.27;;
10465;SDS011;5280;42.600;23.556;2022-11-20T11:21:21;8.00;;;4.87;;
10465;SDS011;5280;42.600;23.556;2022-11-20T11:23:57;7.87;;;4.20;;
10465;SDS011;5280;42.600;23.556;2022-11-20T11:26:28;5.00;;;3.43;;
10465;SDS011;5280;42.600;23.556;2022-11-20T11:28:55;12.30;;;5.87;;
10465;SDS011;5280;42.600;23.556;2022-11-20T11:31:24;8.13;;;4.43;;
10465;SDS011;5280;42.600;23.556;2022-11-20T11:34:02;6.30;;;3.37;;
10465;SDS011;5280;42.600;23.556;2022-11-20T11:36:30;7.03;;;3.50;;
10465;SDS011;5280;42.600;23.556;2022-11-20T11:38:59;5.57;;;2.67;;
10465;SDS011;5280;42.600;23.556;2022-11-20T11:41:28;6.97;;;4.77;;
10465;SDS011;5280;42.600;23.556;2022-11-20T11:44:00;4.10;;;2.83;;
10465;SDS011;5280;42.600;23.556;2022-11-20T11:46:56;6.50;;;2.50;;
10465;SDS011;5280;42.600;23.556;2022-11-20T11:49:26;4.57;;;2.70;;
10465;SDS011;5280;42.600;23.556;2022-11-20T11:51:58;2.73;;;2.30;;
10465;SDS011;5280;42.600;23.556;2022-11-20T11:54:32;10.23;;;3.80;;
10465;SDS011;5280;42.600;23.556;2022-11-20T11:57:05;6.53;;;3.30;;
10465;SDS011;5280;42.600;23.556;2022-11-20T11:59:44;4.27;;;2.83;;
10465;SDS011;5280;42.600;23.556;2022-11-20T12:02:25;4.97;;;3.37;;
10465;SDS011;5280;42.600;23.556;2022-11-20T12:05:03;5.17;;;3.40;;
10465;SDS011;5280;42.600;23.556;2022-11-20T12:07:42;2.90;;;2.27;;
10465;SDS011;5280;42.600;23.556;2022-11-20T12:10:14;3.47;;;2.37;;
10465;SDS011;5280;42.600;23.556;2022-11-20T12:12:46;4.10;;;1.60;;
10465;SDS011;5280;42.600;23.556;2022-11-20T12:15:28;1.23;;;1.13;;
10465;SDS011;5280;42.600;23.556;2022-11-20T12:17:56;3.33;;;0.70;;
10465;SDS011;5280;42.600;23.556;2022-11-20T12:20:26;2.33;;;0.60;;
10465;SDS011;5280;42.600;23.556;2022-11-20T12:23:01;1.03;;;0.50;;
10465;SDS011;5280;42.600;23.556;2022-11-20T12:25:35;2.93;;;0.70;;
10465;SDS011;5280;42.600;23.556;2022-11-20T12:28:19;2.63;;;0.67;;
10465;SDS011;5280;42.600;23.556;2022-11-20T12:31:01;1.93;;;0.50;;
10465;SDS011;5280;42.600;23.556;2022-11-20T12:33:42;0.73;;;0.53;;
10465;SDS011;5280;42.600;23.556;2022-11-20T12:36:27;1.30;;;0.50;;
10465;SDS011;5280;42.600;23.556;2022-11-20T12:39:16;2.80;;;1.00;;
10465;SDS011;5280;42.600;23.556;2022-11-20T12:42:07;2.60;;;0.60;;
10465;SDS011;5280;42.600;23.556;2022-11-20T12:45:06;2.40;;;0.80;;
10465;SDS011;5280;42.600;23.556;2022-11-20T12:47:46;2.67;;;1.00;;
10465;SDS011;5280;42.600;23.556;2022-11-20T12:50:33;2.17;;;0.67;;
10465;SDS011;5280;42.600;23.556;2022-11-20T12:53:16;3.43;;;0.80;;
10465;SDS011;5280;42.600;23.556;2022-11-20T12:55:54;2.47;;;0.70;;
10465;SDS011;5280;42.600;23.556;2022-11-20T12:58:27;2.03;;;0.83;;
10465;SDS011;5280;42.600;23.556;2022-11-20T13:01:03;2.87;;;0.70;;
10465;SDS011;5280;42.600;23.556;2022-11-20T13:04:06;1.30;;;0.77;;
10465;SDS011;5280;42.600;23.556;2022-11-20T13:06:38;1.50;;;0.70;;
10465;SDS011;5280;42.600;23.556;2022-11-20T13:09:08;0.93;;;0.63;;
10465;SDS011;5280;42.600;23.556;2022-11-20T13:11:40;1.13;;;0.73;;
10465;SDS011;5280;42.600;23.556;2022-11-20T13:14:16;0.83;;;0.60;;
10465;SDS011;5280;42.600;23.556;2022-11-20T13:16:54;1.77;;;0.90;;
10465;SDS011;5280;42.600;23.556;2022-11-20T13:19:26;3.00;;;0.83;;
10465;SDS011;5280;42.600;23.556;2022-11-20T13:21:54;2.13;;;0.70;;
10465;SDS011;5280;42.600;23.556;2022-11-20T13:24:24;2.17;;;0.47;;
10465;SDS011;5280;42.600;23.556;2022-11-20T13:27:02;1.73;;;0.70;;
10465;SDS011;5280;42.600;23.556;2022-11-20T13:29:31;3.97;;;0.90;;
10465;SDS011;5280;42.600;23.556;2022-11-20T13:32:02;3.87;;;1.63;;
10465;SDS011;5280;42.600;23.556;2022-11-20T13:34:39;3.93;;;1.23;;
10465;SDS011;5280;42.600;23.556;2022-11-20T13:37:23;2.20;;;0.90;;
10465;SDS011;5280;42.600;23.556;2022-11-20T13:40:04;3.20;;;0.90;;
10465;SDS011;5280;42.600;23.556;2022-11-20T13:42:54;3.33;;;1.10;;
10465;SDS011;5280;42.600;23.556;2022-11-20T13:45:23;3.90;;;1.17;;
10465;SDS011;5280;42.600;23.556;2022-11-20T13:47:52;5.13;;;1.37;;
10465;SDS011;5280;42.600;23.556;2022-11-20T13:50:21;3.03;;;1.60;;
10465;SDS011;5280;42.600;23.556;2022-11-20T13:53:07;3.80;;;1.43;;
10465;SDS011;5280;42.600;23.556;2022-11-20T13:55:47;2.10;;;1.20;;
10465;SDS011;5280;42.600;23.556;2022-11-20T13:58:24;5.60;;;3.10;;
10465;SDS011;5280;42.600;23.556;2022-11-20T14:01:08;7.67;;;4.50;;
10465;SDS011;5280;42.600;23.556;2022-11-20T14:03:36;4.87;;;2.70;;
10465;SDS011;5280;42.600;23.556;2022-11-20T14:06:05;4.87;;;2.93;;
10465;SDS011;5280;42.600;23.556;2022-11-20T14:08:40;2.13;;;1.90;;
10465;SDS011;5280;42.600;23.556;2022-11-20T14:11:14;2.70;;;2.50;;
10465;SDS011;5280;42.600;23.556;2022-11-20T14:13:57;2.40;;;2.17;;
10465;SDS011;5280;42.600;23.556;2022-11-20T14:16:26;2.87;;;2.20;;
10465;SDS011;5280;42.600;23.556;2022-11-20T14:18:55;3.53;;;2.70;;
10465;SDS011;5280;42.600;23.556;2022-11-20T14:21:26;4.40;;;3.03;;
10465;SDS011;5280;42.600;23.556;2022-11-20T14:24:02;7.10;;;3.20;;
10465;SDS011;5280;42.600;23.556;2022-11-20T14:26:32;3.43;;;2.53;;
10465;SDS011;5280;42.600;23.556;2022-11-20T14:28:59;3.90;;;2.60;;
10465;SDS011;5280;42.600;23.556;2022-11-20T14:31:26;4.03;;;2.70;;
10465;SDS011;5280;42.600;23.556;2022-11-20T14:33:54;2.80;;;2.37;;
10465;SDS011;5280;42.600;23.556;2022-11-20T14:36:22;3.30;;;2.20;;
10465;SDS011;5280;42.600;23.556;2022-11-20T14:38:51;3.80;;;1.93;;
10465;SDS011;5280;42.600;23.556;2022-11-20T14:41:20;3.77;;;1.97;;
10465;SDS011;5280;42.600;23.556;2022-11-20T14:43:50;2.50;;;1.80;;
10465;SDS011;5280;42.600;23.556;2022-11-20T14:46:21;5.63;;;2.03;;
10465;SDS011;5280;42.600;23.556;2022-11-20T14:48:50;2.30;;;2.10;;
10465;SDS011;5280;42.600;23.556;2022-11-20T14:51:30;4.80;;;2.10;;
10465;SDS011;5280;42.600;23.556;2022-11-20T14:54:08;4.20;;;1.80;;
10465;SDS011;5280;42.600;23.556;2022-11-20T14:56:36;3.53;;;2.30;;
10465;SDS011;5280;42.600;23.556;2022-11-20T14:59:04;2.40;;;1.63;;
10465;SDS011;5280;42.600;23.556;2022-11-20T15:01:32;1.70;;;1.60;;
10465;SDS011;5280;42.600;23.556;2022-11-20T15:04:00;3.27;;;1.80;;
10465;SDS011;5280;42.600;23.556;2022-11-20T15:06:30;2.50;;;1.73;;
10465;SDS011;5280;42.600;23.556;2022-11-20T15:08:57;3.93;;;1.90;;
10465;SDS011;5280;42.600;23.556;2022-11-20T15:11:27;3.80;;;1.57;;
10465;SDS011;5280;42.600;23.556;2022-11-20T15:13:56;2.63;;;1.40;;